Time;durP1;ratioP1;P1;durP2;ratioP2;P2;SDS_P1;SDS_P2;PMS_P1;PMS_P2;Temp;Humidity;BMP_temperature;BMP_pressure;BME280_temperature;BME280_humidity;BME280_pressure;Samples;Min_cycle;Max_cycle;Signal;HPM_P1;HPM_P2
2023/07/12 00:00:22;;;;;;;8.70;8.60;;;20.60;99.90;;;;;;5055427;28;20540;-66
2023/07/12 00:02:49;;;;;;;8.70;8.60;;;20.60;99.90;;;;;;5076403;28;20459;-67
2023/07/12 00:05:18;;;;;;;8.80;8.70;;;20.60;99.90;;;;;;5071048;28;21055;-66
2023/07/12 00:07:46;;;;;;;8.50;8.40;;;20.70;99.90;;;;;;5079948;28;20965;-66
2023/07/12 00:10:17;;;;;;;8.60;8.50;;;20.80;99.90;;;;;;5069532;28;20459;-66
2023/07/12 00:12:44;;;;;;;8.80;8.70;;;20.80;99.90;;;;;;5067666;28;20470;-66
2023/07/12 00:15:19;;;;;;;8.97;8.87;;;20.90;99.90;;;;;;5080828;28;20500;-66
2023/07/12 00:17:47;;;;;;;8.60;8.50;;;20.90;99.90;;;;;;5056861;28;20879;-67
2023/07/12 00:20:21;;;;;;;8.50;8.40;;;20.80;99.90;;;;;;5074208;28;20458;-67
2023/07/12 00:22:50;;;;;;;8.20;8.10;;;20.90;99.90;;;;;;5075778;28;20455;-66
2023/07/12 00:25:19;;;;;;;8.60;8.50;;;21.00;99.90;;;;;;5067629;28;21376;-66
2023/07/12 00:27:46;;;;;;;12.40;12.00;;;21.10;99.90;;;;;;5073621;28;20465;-66
2023/07/12 00:30:18;;;;;;;15.90;15.20;;;20.90;99.90;;;;;;5065163;28;20466;-67
2023/07/12 00:32:49;;;;;;;20.57;19.27;;;20.80;99.90;;;;;;5071569;28;20466;-65
2023/07/12 00:35:18;;;;;;;20.00;18.80;;;20.50;99.90;;;;;;5072506;28;20556;-67
2023/07/12 00:37:45;;;;;;;19.20;18.10;;;20.30;99.90;;;;;;5073901;28;20973;-66
2023/07/12 00:40:39;;;;;;;18.47;17.47;;;19.90;99.90;;;;;;5069177;28;20463;-66
2023/07/12 00:43:15;;;;;;;17.00;16.20;;;19.50;99.90;;;;;;5066499;28;20467;-67
2023/07/12 00:45:44;;;;;;;16.43;15.73;;;19.20;99.90;;;;;;5071046;28;20473;-68
2023/07/12 00:48:14;;;;;;;16.30;15.60;;;19.00;99.90;;;;;;5069801;28;20459;-67
2023/07/12 00:50:42;;;;;;;15.20;14.60;;;18.90;99.90;;;;;;5069667;28;20461;-67
2023/07/12 00:53:14;;;;;;;14.60;14.10;;;18.90;99.90;;;;;;5077447;28;20482;-67
2023/07/12 00:56:07;;;;;;;13.90;13.50;;;18.90;99.90;;;;;;5067910;28;20548;-65
2023/07/12 00:58:39;;;;;;;12.37;12.07;;;18.80;99.90;;;;;;5070880;28;20459;-66
2023/07/12 01:01:07;;;;;;;12.33;12.03;;;18.70;99.90;;;;;;5066740;28;20490;-66
2023/07/12 01:03:38;;;;;;;11.57;11.27;;;18.60;99.90;;;;;;5069791;28;21054;-66
2023/07/12 01:06:09;;;;;;;13.90;13.50;;;18.50;99.90;;;;;;5076823;28;20530;-67
2023/07/12 01:08:41;;;;;;;12.50;12.17;;;18.50;99.90;;;;;;5071603;28;20458;-66
2023/07/12 01:11:09;;;;;;;11.50;11.20;;;18.50;99.90;;;;;;5068052;28;20459;-66
2023/07/12 01:13:36;;;;;;;11.97;11.67;;;18.60;99.90;;;;;;5068221;28;20541;-66
2023/07/12 01:16:05;;;;;;;11.40;11.10;;;18.60;99.90;;;;;;5071541;28;20537;-65
2023/07/12 01:18:32;;;;;;;11.60;11.30;;;18.60;99.90;;;;;;5054216;28;20463;-66
2023/07/12 01:21:10;;;;;;;13.03;12.63;;;18.60;99.90;;;;;;5071304;28;20469;-65
2023/07/12 01:23:38;;;;;;;13.07;12.67;;;18.50;99.90;;;;;;5065049;28;20462;-67
2023/07/12 01:26:21;;;;;;;13.13;12.63;;;18.40;99.90;;;;;;5072998;28;20583;-68
2023/07/12 01:28:50;;;;;;;13.20;12.70;;;18.30;99.90;;;;;;5068276;28;20456;-66
2023/07/12 01:31:18;;;;;;;11.80;11.40;;;18.40;99.90;;;;;;5073025;28;21025;-65
2023/07/12 01:33:45;;;;;;;13.03;12.63;;;18.50;99.90;;;;;;5064240;28;20473;-65
2023/07/12 01:36:14;;;;;;;12.37;11.97;;;18.40;99.90;;;;;;5069409;28;20467;-65
2023/07/12 01:38:41;;;;;;;12.00;11.60;;;18.50;99.90;;;;;;5075621;28;20490;-66
2023/07/12 01:41:08;;;;;;;12.20;11.80;;;18.50;99.90;;;;;;5072621;28;20883;-67
2023/07/12 01:43:35;;;;;;;12.50;12.00;;;18.50;99.90;;;;;;5065827;28;21028;-65
2023/07/12 01:46:03;;;;;;;12.67;12.17;;;18.50;99.90;;;;;;5083923;28;20474;-66
2023/07/12 01:48:30;;;;;;;12.80;12.30;;;18.40;99.90;;;;;;5077859;28;20466;-67
2023/07/12 01:50:58;;;;;;;13.70;13.20;;;18.40;99.90;;;;;;5074337;28;20459;-65
2023/07/12 01:53:27;;;;;;;14.40;13.80;;;18.40;99.90;;;;;;5086050;28;20482;-66
2023/07/12 01:55:55;;;;;;;14.13;13.53;;;18.40;99.90;;;;;;5072746;28;20847;-66
2023/07/12 01:58:23;;;;;;;13.30;12.80;;;18.50;99.90;;;;;;5080004;28;20906;-66
2023/07/12 02:00:51;;;;;;;13.40;12.90;;;18.50;99.90;;;;;;5074840;28;20462;-67
2023/07/12 02:03:18;;;;;;;13.70;13.20;;;18.50;99.90;;;;;;5077374;28;20542;-66
2023/07/12 02:05:46;;;;;;;13.30;12.80;;;18.50;99.90;;;;;;5058625;28;20505;-67
2023/07/12 02:08:14;;;;;;;12.73;12.23;;;18.50;99.90;;;;;;5077454;28;20458;-66
2023/07/12 02:10:43;;;;;;;12.80;12.30;;;18.60;99.90;;;;;;5071629;28;20545;-67
2023/07/12 02:13:11;;;;;;;12.90;12.40;;;18.60;99.90;;;;;;5071505;28;20463;-66
2023/07/12 02:15:38;;;;;;;12.70;12.20;;;18.50;99.90;;;;;;5079255;28;20562;-66
2023/07/12 02:18:05;;;;;;;13.57;13.00;;;18.50;99.90;;;;;;5073427;28;20462;-65
2023/07/12 02:20:32;;;;;;;14.03;13.43;;;18.50;99.90;;;;;;5074066;28;20941;-65
2023/07/12 02:22:59;;;;;;;14.07;13.47;;;18.50;99.90;;;;;;5077011;28;20497;-65
2023/07/12 02:25:27;;;;;;;15.17;14.37;;;18.60;99.90;;;;;;5077847;28;20527;-66
2023/07/12 02:27:55;;;;;;;13.40;12.80;;;18.50;99.90;;;;;;5080200;28;20873;-67
2023/07/12 02:30:26;;;;;;;13.57;12.97;;;18.40;99.90;;;;;;5072084;28;20466;-66
2023/07/12 02:32:54;;;;;;;12.83;12.33;;;18.40;99.90;;;;;;5068324;28;20470;-67
2023/07/12 02:35:27;;;;;;;13.97;13.37;;;18.40;99.90;;;;;;5073511;28;20469;-65
2023/07/12 02:37:54;;;;;;;14.27;13.67;;;18.30;99.90;;;;;;5081186;28;20462;-64
2023/07/12 02:40:21;;;;;;;13.20;12.70;;;18.20;99.90;;;;;;5076093;28;20466;-66
2023/07/12 02:42:49;;;;;;;15.10;14.40;;;18.10;99.90;;;;;;5071439;28;20462;-67
2023/07/12 02:45:18;;;;;;;16.87;15.77;;;17.80;99.90;;;;;;5076008;28;20964;-65
2023/07/12 02:47:44;;;;;;;16.50;15.60;;;17.50;99.90;;;;;;5072341;28;21025;-66
2023/07/12 02:50:12;;;;;;;15.80;15.00;;;17.30;99.90;;;;;;5079241;28;20465;-65
2023/07/12 02:52:40;;;;;;;15.30;14.60;;;17.20;99.90;;;;;;5070587;28;20459;-65
2023/07/12 02:55:07;;;;;;;15.53;14.83;;;16.90;99.90;;;;;;5068935;28;20471;-66
2023/07/12 02:57:34;;;;;;;16.03;15.03;;;16.70;99.90;;;;;;5072760;28;20462;-66
2023/07/12 03:00:01;;;;;;;14.10;13.50;;;16.60;99.90;;;;;;5080109;28;21056;-66
2023/07/12 03:02:30;;;;;;;14.27;13.67;;;16.60;99.90;;;;;;5075943;28;20838;-67
2023/07/12 03:04:57;;;;;;;14.30;13.57;;;16.60;99.90;;;;;;5081976;28;20838;-67
2023/07/12 03:07:24;;;;;;;13.93;12.97;;;16.70;99.90;;;;;;5081469;28;20498;-67
2023/07/12 03:09:57;;;;;;;13.33;12.73;;;16.60;99.90;;;;;;5072047;28;20471;-66
2023/07/12 03:12:25;;;;;;;14.00;13.40;;;16.50;99.90;;;;;;5070102;28;20466;-67
2023/07/12 03:14:53;;;;;;;12.47;11.97;;;16.50;99.90;;;;;;5076603;28;20462;-67
2023/07/12 03:17:21;;;;;;;12.40;11.90;;;16.40;99.90;;;;;;5070540;28;20524;-66
2023/07/12 03:19:50;;;;;;;11.50;11.10;;;16.40;99.90;;;;;;5070993;28;20462;-67
2023/07/12 03:22:17;;;;;;;12.70;12.20;;;16.40;99.90;;;;;;5072340;28;20466;-65
2023/07/12 03:24:44;;;;;;;11.83;11.43;;;16.40;99.90;;;;;;5075982;28;20497;-67
2023/07/12 03:27:12;;;;;;;12.10;11.67;;;16.40;99.90;;;;;;5072886;28;20497;-67
2023/07/12 03:29:39;;;;;;;12.10;11.67;;;16.40;99.90;;;;;;5074370;28;20476;-66
2023/07/12 03:32:08;;;;;;;12.00;11.60;;;16.50;99.90;;;;;;5078408;28;20983;-67
2023/07/12 03:34:36;;;;;;;11.70;11.30;;;16.40;99.90;;;;;;5071650;28;20558;-65
2023/07/12 03:37:06;;;;;;;12.03;11.53;;;16.40;99.90;;;;;;5075857;28;20497;-66
2023/07/12 03:39:34;;;;;;;11.70;11.30;;;16.40;99.90;;;;;;5066696;28;20546;-65
2023/07/12 03:42:01;;;;;;;11.80;11.30;;;16.40;99.90;;;;;;5082237;28;20864;-67
2023/07/12 03:44:29;;;;;;;11.93;11.53;;;16.50;99.90;;;;;;5076297;28;20466;-65
2023/07/12 03:46:56;;;;;;;12.70;12.20;;;16.40;99.90;;;;;;5076681;28;20483;-67
2023/07/12 03:49:23;;;;;;;12.20;11.70;;;16.40;99.90;;;;;;5072101;28;20820;-66
2023/07/12 03:51:50;;;;;;;12.23;11.77;;;16.50;99.90;;;;;;5069815;28;20459;-67
2023/07/12 03:54:21;;;;;;;11.80;11.40;;;16.50;99.90;;;;;;5082686;28;20491;-68
2023/07/12 03:56:48;;;;;;;12.37;11.80;;;16.60;99.90;;;;;;5071289;28;20474;-68
2023/07/12 03:59:15;;;;;;;11.50;11.10;;;16.60;99.90;;;;;;5066980;28;20471;-67
2023/07/12 04:01:41;;;;;;;10.70;10.30;;;16.60;99.90;;;;;;5078385;28;20469;-67
2023/07/12 04:04:09;;;;;;;11.13;10.73;;;16.60;99.90;;;;;;5058352;28;20509;-67
2023/07/12 04:06:36;;;;;;;10.80;10.40;;;16.60;99.90;;;;;;5069793;28;20486;-68
2023/07/12 04:09:03;;;;;;;11.20;10.80;;;16.50;99.90;;;;;;5072588;28;20458;-68
2023/07/12 04:11:36;;;;;;;10.80;10.40;;;16.50;99.90;;;;;;5079537;28;20466;-67
2023/07/12 04:14:04;;;;;;;11.30;10.90;;;16.40;99.90;;;;;;5069574;28;20455;-67
2023/07/12 04:16:32;;;;;;;13.13;12.33;;;16.50;99.90;;;;;;5069625;28;20482;-66
2023/07/12 04:18:59;;;;;;;11.90;11.50;;;16.40;99.90;;;;;;5060824;28;20815;-67
2023/07/12 04:21:26;;;;;;;13.00;12.40;;;16.40;99.90;;;;;;5070558;28;20458;-66
2023/07/12 04:23:53;;;;;;;11.90;11.50;;;16.50;99.90;;;;;;5069500;28;20477;-67
2023/07/12 04:26:21;;;;;;;12.70;12.20;;;16.50;99.90;;;;;;5068704;28;21299;-67
2023/07/12 04:28:51;;;;;;;12.33;11.83;;;16.50;99.90;;;;;;5078203;28;20550;-66
2023/07/12 04:31:20;;;;;;;13.00;12.50;;;16.50;99.90;;;;;;5059508;28;20971;-65
2023/07/12 04:33:47;;;;;;;13.43;12.93;;;16.50;99.90;;;;;;5068761;28;20470;-66
2023/07/12 04:36:17;;;;;;;13.10;12.60;;;16.50;99.90;;;;;;5072337;28;20565;-66
2023/07/12 04:38:45;;;;;;;11.90;11.50;;;16.60;99.90;;;;;;5072216;28;20834;-65
2023/07/12 04:41:11;;;;;;;11.57;11.17;;;16.60;99.90;;;;;;5080691;28;20470;-65
2023/07/12 04:43:39;;;;;;;10.80;10.40;;;16.60;99.90;;;;;;5074577;28;20550;-67
2023/07/12 04:46:08;;;;;;;10.57;10.17;;;16.50;99.90;;;;;;5075067;28;20933;-67
2023/07/12 04:48:36;;;;;;;12.63;11.70;;;16.50;99.90;;;;;;5073001;28;20814;-66
2023/07/12 04:51:03;;;;;;;10.30;9.90;;;16.60;99.90;;;;;;5077807;28;20466;-67
2023/07/12 04:53:31;;;;;;;10.50;10.10;;;16.70;99.90;;;;;;5068620;28;20573;-65
2023/07/12 04:55:58;;;;;;;10.50;10.10;;;16.70;99.90;;;;;;5071281;28;20478;-67
2023/07/12 04:58:24;;;;;;;10.57;10.17;;;16.70;99.90;;;;;;5068430;28;20946;-65
2023/07/12 05:00:51;;;;;;;10.20;9.80;;;16.80;99.90;;;;;;5068487;28;20466;-67
2023/07/12 05:03:20;;;;;;;10.07;9.67;;;16.90;99.90;;;;;;5073240;28;20465;-67
2023/07/12 05:05:48;;;;;;;10.17;9.73;;;16.90;99.90;;;;;;5055397;28;20946;-67
2023/07/12 05:08:16;;;;;;;10.17;9.77;;;17.00;99.90;;;;;;5062071;28;20491;-66
2023/07/12 05:10:42;;;;;;;8.90;8.60;;;16.90;99.90;;;;;;5055928;28;20586;-65
2023/07/12 05:13:09;;;;;;;8.57;8.27;;;16.90;99.90;;;;;;5062974;28;20472;-66
2023/07/12 05:15:37;;;;;;;8.50;8.20;;;16.90;99.90;;;;;;5056439;28;20811;-65
2023/07/12 05:18:04;;;;;;;7.90;7.60;;;16.80;99.90;;;;;;5058644;28;21171;-65
2023/07/12 05:20:33;;;;;;;7.00;6.80;;;16.80;99.90;;;;;;5064430;28;20459;-67
2023/07/12 05:23:00;;;;;;;6.53;6.33;;;16.80;99.90;;;;;;5054102;28;20459;-66
2023/07/12 05:25:27;;;;;;;6.20;6.00;;;16.80;99.90;;;;;;5066760;28;20462;-64
2023/07/12 05:27:55;;;;;;;7.07;6.87;;;16.90;99.90;;;;;;5065975;28;20486;-67
2023/07/12 05:30:22;;;;;;;7.27;6.97;;;16.90;99.90;;;;;;5068538;28;20853;-66
2023/07/12 05:32:48;;;;;;;8.03;7.27;;;17.00;99.90;;;;;;5065440;28;20465;-65
2023/07/12 05:35:16;;;;;;;5.90;5.70;;;17.00;99.90;;;;;;5072232;28;20458;-65
2023/07/12 05:37:45;;;;;;;6.40;6.20;;;17.10;99.90;;;;;;5073158;28;20471;-66
2023/07/12 05:40:13;;;;;;;6.13;5.93;;;17.20;99.90;;;;;;5075133;28;20465;-66
2023/07/12 05:42:41;;;;;;;7.20;6.90;;;17.20;99.90;;;;;;5070456;28;20498;-65
2023/07/12 05:45:10;;;;;;;6.60;6.30;;;17.20;99.90;;;;;;5074752;28;20461;-65
2023/07/12 05:47:38;;;;;;;6.83;6.53;;;17.10;99.90;;;;;;5068116;28;20865;-64
2023/07/12 05:50:08;;;;;;;5.50;5.30;;;17.00;99.90;;;;;;5075544;28;20458;-65
2023/07/12 05:52:37;;;;;;;5.50;5.30;;;17.10;99.90;;;;;;5070077;28;20515;-66
2023/07/12 05:55:08;;;;;;;7.30;7.00;;;17.20;99.90;;;;;;5062155;28;20536;-66
2023/07/12 05:57:35;;;;;;;7.40;6.90;;;17.20;99.90;;;;;;5080476;28;20466;-65
2023/07/12 06:00:03;;;;;;;6.10;5.90;;;17.40;99.90;;;;;;5077904;28;20561;-66
2023/07/12 06:02:31;;;;;;;6.07;5.87;;;17.40;99.90;;;;;;5065210;28;20466;-67
2023/07/12 06:04:58;;;;;;;6.93;6.53;;;17.40;99.90;;;;;;5067210;28;20519;-65
2023/07/12 06:07:26;;;;;;;6.27;5.97;;;17.40;99.90;;;;;;5072601;28;20486;-65
2023/07/12 06:09:53;;;;;;;5.57;5.37;;;17.50;99.90;;;;;;5076841;28;20469;-66
2023/07/12 06:12:22;;;;;;;6.27;6.07;;;17.70;99.90;;;;;;5068931;28;20486;-67
2023/07/12 06:14:49;;;;;;;6.33;5.83;;;18.00;99.90;;;;;;5065688;28;20885;-66
2023/07/12 06:17:16;;;;;;;6.60;6.30;;;18.20;99.90;;;;;;5079729;28;20462;-66
2023/07/12 06:19:42;;;;;;;7.30;6.90;;;18.40;99.90;;;;;;5071404;28;20828;-66
2023/07/12 06:22:10;;;;;;;7.07;6.57;;;18.60;99.90;;;;;;5079121;28;20459;-65
2023/07/12 06:24:36;;;;;;;8.40;7.03;;;18.80;99.90;;;;;;5067292;28;20466;-65
2023/07/12 06:27:06;;;;;;;7.73;7.23;;;18.90;99.90;;;;;;5076231;28;20502;-65
2023/07/12 06:29:34;;;;;;;7.80;7.50;;;18.90;99.90;;;;;;5072232;28;20991;-67
2023/07/12 06:32:02;;;;;;;6.70;6.50;;;18.80;99.90;;;;;;5071573;28;20455;-66
2023/07/12 06:34:28;;;;;;;6.60;6.40;;;18.90;99.90;;;;;;5069327;28;20477;-65
2023/07/12 06:36:56;;;;;;;8.10;7.80;;;19.10;99.90;;;;;;5069866;28;20470;-65
2023/07/12 06:39:23;;;;;;;10.23;9.67;;;19.30;99.90;;;;;;5065154;28;20858;-67
2023/07/12 06:41:50;;;;;;;10.03;9.63;;;19.30;99.90;;;;;;5077843;28;20976;-66
2023/07/12 06:44:17;;;;;;;9.40;9.10;;;19.40;99.90;;;;;;5073859;28;20931;-65
2023/07/12 06:46:47;;;;;;;10.77;10.27;;;19.40;99.90;;;;;;5068739;28;20459;-66
2023/07/12 06:49:15;;;;;;;10.40;10.00;;;19.30;99.90;;;;;;5070876;28;20471;-65
2023/07/12 06:51:45;;;;;;;11.87;11.27;;;19.30;99.90;;;;;;5071637;28;20870;-66
2023/07/12 06:54:12;;;;;;;10.53;10.13;;;19.50;99.90;;;;;;5075673;28;21128;-67
2023/07/12 06:56:39;;;;;;;10.80;10.40;;;19.60;99.90;;;;;;5068299;28;20521;-66
2023/07/12 06:59:07;;;;;;;11.13;10.73;;;19.70;99.90;;;;;;5068724;28;20461;-65
2023/07/12 07:01:34;;;;;;;12.23;11.73;;;19.70;99.90;;;;;;5067189;28;21031;-66
2023/07/12 07:04:03;;;;;;;12.13;11.53;;;19.80;99.90;;;;;;5076377;28;21279;-66
2023/07/12 07:06:31;;;;;;;10.90;10.50;;;19.70;99.90;;;;;;5078781;28;20458;-65
2023/07/12 07:08:58;;;;;;;12.13;11.53;;;19.80;99.90;;;;;;5069342;28;20498;-65
2023/07/12 07:11:25;;;;;;;12.90;12.30;;;20.10;99.90;;;;;;5068837;28;20957;-67
2023/07/12 07:13:53;;;;;;;13.23;12.63;;;20.10;99.90;;;;;;5073053;28;20465;-66
2023/07/12 07:16:21;;;;;;;14.13;13.43;;;20.20;99.90;;;;;;5077406;28;20874;-66
2023/07/12 07:18:49;;;;;;;14.87;14.17;;;20.40;99.90;;;;;;5065957;28;20475;-66
2023/07/12 07:21:17;;;;;;;15.30;14.40;;;20.10;99.90;;;;;;5068987;28;20528;-66
2023/07/12 07:23:44;;;;;;;14.47;13.77;;;19.90;99.90;;;;;;5074861;28;20965;-66
2023/07/12 07:26:12;;;;;;;14.70;14.00;;;20.10;99.90;;;;;;5068951;28;20455;-65
2023/07/12 07:28:39;;;;;;;14.17;13.57;;;20.20;99.90;;;;;;5065632;28;20490;-66
2023/07/12 07:31:07;;;;;;;14.40;13.80;;;20.20;99.90;;;;;;5053691;28;20459;-67
2023/07/12 07:33:37;;;;;;;14.00;13.40;;;20.10;99.90;;;;;;5059680;28;20528;-67
2023/07/12 07:36:08;;;;;;;14.30;13.20;;;20.00;99.90;;;;;;5063019;28;20566;-66
2023/07/12 07:38:37;;;;;;;13.97;13.37;;;20.20;99.90;;;;;;5062854;28;20470;-67
2023/07/12 07:41:09;;;;;;;14.40;13.80;;;20.30;99.90;;;;;;5062956;28;20462;-66
2023/07/12 07:43:36;;;;;;;14.37;13.77;;;20.40;99.90;;;;;;5070081;28;20496;-66
2023/07/12 07:46:04;;;;;;;14.77;14.07;;;20.50;99.90;;;;;;5072797;28;20721;-67
2023/07/12 07:48:31;;;;;;;13.67;13.07;;;20.40;99.90;;;;;;5061148;28;20483;-67
2023/07/12 07:50:58;;;;;;;14.83;14.13;;;20.50;99.90;;;;;;5067827;28;20463;-67
2023/07/12 07:53:25;;;;;;;15.70;14.73;;;20.50;99.90;;;;;;5060316;28;20517;-66
2023/07/12 07:55:54;;;;;;;14.50;13.80;;;20.70;99.90;;;;;;5068125;28;20528;-66
2023/07/12 07:58:22;;;;;;;14.70;14.10;;;20.70;99.90;;;;;;5065117;28;20550;-66
2023/07/12 08:00:51;;;;;;;16.37;15.40;;;20.90;99.90;;;;;;5067225;28;20485;-68
2023/07/12 08:03:18;;;;;;;15.30;14.60;;;21.10;99.90;;;;;;5063962;28;20459;-66
2023/07/12 08:05:46;;;;;;;15.60;14.90;;;21.20;99.90;;;;;;5073000;28;20819;-65
2023/07/12 08:08:13;;;;;;;15.60;14.90;;;21.00;99.90;;;;;;5064774;28;20494;-66
2023/07/12 08:10:40;;;;;;;16.60;15.80;;;20.70;99.90;;;;;;5062762;28;20474;-65
2023/07/12 08:13:08;;;;;;;15.60;14.80;;;20.50;99.90;;;;;;5066068;28;20459;-65
2023/07/12 08:15:36;;;;;;;15.73;15.03;;;20.20;99.90;;;;;;5071661;28;20863;-65
2023/07/12 08:18:04;;;;;;;16.93;15.93;;;20.20;99.90;;;;;;5066537;28;20973;-65
2023/07/12 08:20:33;;;;;;;15.47;14.77;;;20.40;99.90;;;;;;5069827;28;20499;-67
2023/07/12 08:23:00;;;;;;;16.27;15.17;;;20.50;99.90;;;;;;5061819;28;20554;-67
2023/07/12 08:25:26;;;;;;;15.60;14.90;;;20.80;99.90;;;;;;5071630;28;20512;-66
2023/07/12 08:27:55;;;;;;;15.93;15.03;;;20.80;99.90;;;;;;5066702;28;20494;-66
2023/07/12 08:30:23;;;;;;;15.60;14.80;;;20.90;99.90;;;;;;5069833;28;20459;-66
2023/07/12 08:32:51;;;;;;;16.37;15.60;;;21.40;99.90;;;;;;5069059;28;20463;-66
2023/07/12 08:35:18;;;;;;;17.07;16.10;;;21.70;99.90;;;;;;5069751;28;20486;-67
2023/07/12 08:37:45;;;;;;;16.47;15.67;;;21.70;99.90;;;;;;5064421;28;20908;-68
2023/07/12 08:40:15;;;;;;;15.90;15.20;;;21.80;99.90;;;;;;5065087;28;20918;-67
2023/07/12 08:42:43;;;;;;;16.90;15.90;;;21.70;99.90;;;;;;5065526;28;20452;-68
2023/07/12 08:45:22;;;;;;;16.37;15.47;;;21.70;99.90;;;;;;5071209;28;20805;-67
2023/07/12 08:47:53;;;;;;;16.97;15.97;;;21.80;99.90;;;;;;5068381;28;20490;-67
2023/07/12 08:50:21;;;;;;;16.90;16.00;;;22.10;99.90;;;;;;5068034;28;20487;-68
2023/07/12 08:52:47;;;;;;;16.50;15.70;;;22.20;99.90;;;;;;5063886;28;20458;-67
2023/07/12 08:55:18;;;;;;;16.70;15.80;;;22.30;99.90;;;;;;5070497;28;20462;-68
2023/07/12 08:57:45;;;;;;;16.80;16.00;;;22.40;99.90;;;;;;5071153;28;20474;-69
2023/07/12 09:00:19;;;;;;;18.10;16.93;;;22.70;99.90;;;;;;5071304;28;20482;-68
2023/07/12 09:02:46;;;;;;;17.23;16.13;;;22.90;99.90;;;;;;5070489;28;20447;-69
2023/07/12 09:08:39;;;;;;;16.83;16.03;;;23.30;99.90;;;;;;5071145;28;20498;-68
2023/07/12 09:11:14;;;;;;;16.90;16.10;;;23.00;99.90;;;;;;5068137;28;20458;-67
2023/07/12 09:13:40;;;;;;;17.73;16.80;;;23.20;99.90;;;;;;5070538;28;20454;-67
2023/07/12 09:16:24;;;;;;;16.43;15.63;;;23.30;99.90;;;;;;5070296;28;20478;-68
2023/07/12 09:18:54;;;;;;;16.60;15.80;;;23.30;99.90;;;;;;5070689;28;20541;-67
2023/07/12 09:21:22;;;;;;;16.63;15.83;;;23.80;99.90;;;;;;5069060;28;20455;-68
2023/07/12 09:23:53;;;;;;;16.70;15.90;;;24.30;99.90;;;;;;5069193;28;20469;-68
2023/07/12 09:26:25;;;;;;;17.40;16.60;;;23.80;99.90;;;;;;5070794;28;20454;-67
2023/07/12 09:28:56;;;;;;;17.33;16.43;;;22.60;99.90;;;;;;5069813;28;20585;-67
2023/07/12 09:31:27;;;;;;;17.60;16.70;;;22.90;99.90;;;;;;5068971;28;20455;-67
2023/07/12 09:33:57;;;;;;;16.60;15.80;;;23.40;99.90;;;;;;5070555;28;20462;-67
2023/07/12 09:39:54;;;;;;;17.47;16.47;;;24.00;99.90;;;;;;5069297;28;20505;-67
2023/07/12 09:42:21;;;;;;;16.90;16.10;;;24.20;99.90;;;;;;5069279;28;20447;-68
2023/07/12 09:44:50;;;;;;;16.80;15.90;;;24.10;99.90;;;;;;5060622;28;20463;-69
2023/07/12 09:47:37;;;;;;;16.43;15.73;;;24.10;99.90;;;;;;5068990;28;20851;-69
2023/07/12 09:50:14;;;;;;;16.80;16.10;;;24.50;99.90;;;;;;5068430;28;20467;-68
2023/07/12 09:52:54;;;;;;;17.47;16.17;;;25.10;99.90;;;;;;5065728;28;20454;-68
2023/07/12 09:55:29;;;;;;;16.30;15.60;;;24.80;99.90;;;;;;5061018;28;20454;-67
2023/07/12 09:58:03;;;;;;;16.80;16.10;;;24.60;99.90;;;;;;5062462;28;20553;-67
2023/07/12 10:00:34;;;;;;;17.93;17.13;;;24.80;99.90;;;;;;5064747;28;20968;-67
2023/07/12 10:03:16;;;;;;;17.07;16.27;;;24.90;99.90;;;;;;5064102;28;20443;-66
2023/07/12 10:05:48;;;;;;;17.17;16.10;;;24.90;99.90;;;;;;5064855;28;20470;-68
2023/07/12 10:08:17;;;;;;;16.93;16.13;;;25.30;99.90;;;;;;5071393;28;20506;-67
2023/07/12 10:10:55;;;;;;;17.40;16.60;;;25.50;99.90;;;;;;5068809;28;20454;-68
2023/07/12 10:13:33;;;;;;;16.50;15.80;;;25.50;99.90;;;;;;5065449;28;20455;-69
2023/07/12 10:16:03;;;;;;;17.30;16.50;;;25.90;99.90;;;;;;5064873;28;20490;-66
2023/07/12 10:18:34;;;;;;;17.17;16.37;;;26.40;99.90;;;;;;5069597;28;20459;-66
2023/07/12 10:21:02;;;;;;;17.60;16.80;;;26.10;99.90;;;;;;5067012;28;20561;-68
2023/07/12 10:23:35;;;;;;;17.00;16.20;;;25.80;99.90;;;;;;5066276;28;20478;-67
2023/07/12 10:26:05;;;;;;;18.37;16.73;;;25.80;99.90;;;;;;5062753;28;20953;-67
2023/07/12 10:28:44;;;;;;;16.80;16.10;;;25.60;99.90;;;;;;5067007;28;20482;-67
2023/07/12 10:31:34;;;;;;;16.43;15.73;;;25.70;99.90;;;;;;5073769;28;20468;-67
2023/07/12 10:34:13;;;;;;;16.20;15.20;;;25.80;99.90;;;;;;5061440;28;20484;-67
2023/07/12 10:36:40;;;;;;;17.27;16.27;;;25.70;99.90;;;;;;5067501;28;21035;-67
2023/07/12 10:39:09;;;;;;;16.77;16.03;;;26.40;99.90;;;;;;5063554;28;20459;-67
2023/07/12 10:41:44;;;;;;;18.50;17.23;;;26.90;99.90;;;;;;5060471;28;20463;-67
2023/07/12 10:44:19;;;;;;;17.50;16.60;;;26.80;99.90;;;;;;5066136;28;20467;-68
2023/07/12 10:46:50;;;;;;;16.50;15.80;;;26.40;99.90;;;;;;5066039;28;20462;-67
2023/07/12 10:49:19;;;;;;;16.83;16.13;;;26.20;99.90;;;;;;5058523;28;20494;-68
2023/07/12 10:52:05;;;;;;;16.90;16.00;;;26.00;99.90;;;;;;5063625;28;20513;-67
2023/07/12 10:54:51;;;;;;;17.10;16.40;;;26.50;99.90;;;;;;5055574;28;20784;-68
2023/07/12 10:57:28;;;;;;;17.17;16.27;;;26.50;99.90;;;;;;5063839;28;20451;-67
2023/07/12 11:00:05;;;;;;;18.77;17.30;;;26.40;99.90;;;;;;5059477;28;20463;-67
2023/07/12 11:02:41;;;;;;;16.90;16.10;;;26.30;99.90;;;;;;5056522;28;20459;-67
2023/07/12 11:05:38;;;;;;;17.77;16.97;;;26.50;99.90;;;;;;5064621;28;20465;-67
2023/07/12 11:08:06;;;;;;;17.60;16.80;;;27.20;99.90;;;;;;5064441;28;20467;-68
2023/07/12 11:10:37;;;;;;;18.03;17.03;;;27.80;99.90;;;;;;5049278;28;20498;-68
2023/07/12 11:13:13;;;;;;;19.23;18.23;;;28.40;99.90;;;;;;5037075;28;20842;-68
2023/07/12 11:15:59;;;;;;;17.70;16.90;;;28.30;99.90;;;;;;5062445;28;20498;-69
2023/07/12 11:18:33;;;;;;;16.90;16.20;;;28.70;99.90;;;;;;5063348;28;20474;-68
2023/07/12 11:21:03;;;;;;;17.67;16.70;;;28.50;99.90;;;;;;5065791;28;20461;-68
2023/07/12 11:23:46;;;;;;;17.70;16.80;;;28.70;99.90;;;;;;5064900;28;20463;-67
2023/07/12 11:26:23;;;;;;;18.63;17.73;;;28.60;99.90;;;;;;5064229;28;20848;-68
2023/07/12 11:28:52;;;;;;;18.90;17.90;;;28.80;99.90;;;;;;5053635;28;21008;-68
2023/07/12 11:31:33;;;;;;;17.70;16.80;;;29.10;99.90;;;;;;5059204;28;20460;-67
2023/07/12 11:34:11;;;;;;;16.87;16.17;;;29.30;99.90;;;;;;5066714;28;20464;-69
2023/07/12 11:36:39;;;;;;;18.90;18.10;;;28.90;99.90;;;;;;5063087;28;20463;-67
2023/07/12 11:39:15;;;;;;;16.37;15.67;;;29.20;99.60;;;;;;5066615;28;20559;-67
2023/07/12 11:41:53;;;;;;;17.80;16.90;;;28.10;99.90;;;;;;5064989;28;20521;-68
2023/07/12 11:44:23;;;;;;;16.67;15.97;;;27.20;99.90;;;;;;5066958;28;20458;-67
2023/07/12 11:46:51;;;;;;;17.03;16.23;;;27.60;99.90;;;;;;5070850;28;20514;-67
2023/07/12 11:49:20;;;;;;;17.00;16.20;;;27.90;99.90;;;;;;5066182;28;20495;-67
2023/07/12 11:51:49;;;;;;;17.87;17.07;;;28.90;99.90;;;;;;5066362;28;20447;-69
2023/07/12 11:54:21;;;;;;;17.53;16.73;;;29.50;99.10;;;;;;5067692;28;20500;-68
2023/07/12 11:56:49;;;;;;;16.50;15.80;;;29.80;99.20;;;;;;5066033;28;20450;-67
2023/07/12 11:59:19;;;;;;;15.80;15.20;;;29.60;99.10;;;;;;5066945;28;20482;-67
2023/07/12 12:01:51;;;;;;;15.37;14.67;;;29.30;98.10;;;;;;5065724;28;20516;-67
2023/07/12 12:04:23;;;;;;;16.27;15.57;;;29.50;97.20;;;;;;5060321;28;20817;-68
2023/07/12 12:06:53;;;;;;;17.13;16.23;;;28.80;97.50;;;;;;5064728;28;20471;-68
2023/07/12 12:09:23;;;;;;;15.83;15.17;;;29.00;96.40;;;;;;5065079;28;21027;-67
2023/07/12 12:11:50;;;;;;;17.63;16.83;;;29.20;96.50;;;;;;5069300;28;20459;-66
2023/07/12 12:14:24;;;;;;;15.60;14.90;;;29.60;96.70;;;;;;5065830;28;20459;-66
2023/07/12 12:16:55;;;;;;;16.90;15.30;;;30.10;95.70;;;;;;5065437;28;20491;-67
2023/07/12 12:19:28;;;;;;;16.17;15.33;;;29.00;95.40;;;;;;5061777;28;20455;-67
2023/07/12 12:22:01;;;;;;;15.30;14.63;;;28.60;96.00;;;;;;5064197;28;20501;-67
2023/07/12 12:24:28;;;;;;;15.60;14.90;;;28.00;96.50;;;;;;5062471;28;20459;-67
2023/07/12 12:26:57;;;;;;;15.37;14.67;;;27.80;97.30;;;;;;5061592;28;20454;-66
2023/07/12 12:29:25;;;;;;;16.27;15.57;;;28.50;96.90;;;;;;5066416;28;20498;-66
2023/07/12 12:31:56;;;;;;;15.43;14.83;;;29.10;94.60;;;;;;5062606;28;20459;-67
2023/07/12 12:34:27;;;;;;;15.10;14.50;;;29.40;92.80;;;;;;5065287;28;20455;-67
2023/07/12 12:36:59;;;;;;;15.13;14.47;;;29.50;92.40;;;;;;5065667;28;20609;-66
2023/07/12 12:39:26;;;;;;;14.97;14.37;;;29.60;91.20;;;;;;5063050;28;21322;-67
2023/07/12 12:41:56;;;;;;;15.30;14.60;;;29.50;90.80;;;;;;5065658;28;20458;-65
2023/07/12 12:44:27;;;;;;;15.60;14.90;;;29.70;91.10;;;;;;5061863;28;20469;-67
2023/07/12 12:46:57;;;;;;;15.30;14.70;;;30.60;92.20;;;;;;5067727;28;21201;-66
2023/07/12 12:49:27;;;;;;;16.10;15.40;;;30.80;90.40;;;;;;5067842;28;20493;-67